Time,TemperatureF,DewpointF,PressureIn,WindDirection,WindDirectionDegrees,WindSpeedMPH,WindSpeedGustMPH,Humidity,HourlyPrecipIn,Conditions,Clouds,dailyrainin,SoftwareType,DateUTC
2013-11-22 00:00:00,26.7,22.2,30.40,WNW,293,4.7,4.7,83,0.00,,,0.11,WUHU216HW,2013-11-22 06:00:00,
2013-11-22 00:05:00,26.7,22.2,30.40,WNW,293,4.7,4.7,83,0.00,,,0.11,WUHU216HW,2013-11-22 06:05:00,
2013-11-22 00:29:00,26.5,22.0,30.40,WNW,293,3.1,3.1,83,0.00,,,0.00,WUHU216HW,2013-11-22 06:29:00,
2013-11-22 00:30:00,26.5,22.0,30.40,WNW,293,3.1,3.1,83,0.00,,,0.00,WUHU216HW,2013-11-22 06:30:00,
2013-11-22 00:35:00,26.5,22.0,30.40,WNW,293,3.1,3.1,83,0.00,,,0.00,WUHU216HW,2013-11-22 06:35:00,
2013-11-22 01:00:00,26.5,22.0,30.41,WNW,293,8.9,8.9,83,0.00,,,0.00,WUHU216HW,2013-11-22 07:00:00,
2013-11-22 01:05:00,26.5,22.0,30.41,WNW,293,8.9,8.9,83,0.00,,,0.00,WUHU216HW,2013-11-22 07:05:00,
2013-11-22 01:30:00,26.2,21.4,30.42,WNW,293,4.0,4.0,82,0.00,,,0.00,WUHU216HW,2013-11-22 07:30:00,
2013-11-22 01:35:00,26.2,21.4,30.42,WNW,293,4.0,4.0,82,0.00,,,0.00,WUHU216HW,2013-11-22 07:35:00,
2013-11-22 02:00:00,26.2,21.7,30.43,WNW,293,3.6,3.6,83,0.00,,,0.00,WUHU216HW,2013-11-22 08:00:00,
2013-11-22 02:05:00,26.2,21.7,30.43,WNW,293,3.6,3.6,83,0.00,,,0.00,WUHU216HW,2013-11-22 08:05:00,
2013-11-22 02:30:00,25.8,20.8,30.44,WNW,293,4.9,4.9,81,0.00,,,0.00,WUHU216HW,2013-11-22 08:30:00,
2013-11-22 02:35:00,25.8,20.8,30.44,WNW,293,4.9,4.9,81,0.00,,,0.00,WUHU216HW,2013-11-22 08:35:00,
2013-11-22 03:00:00,25.4,20.4,30.45,WNW,293,3.6,3.6,81,0.00,,,0.00,WUHU216HW,2013-11-22 09:00:00,
2013-11-22 03:05:00,25.4,20.4,30.45,WNW,293,3.6,3.6,81,0.00,,,0.00,WUHU216HW,2013-11-22 09:05:00,
2013-11-22 03:30:00,25.1,20.1,30.45,WNW,293,3.4,3.4,81,0.00,,,0.00,WUHU216HW,2013-11-22 09:30:00,
2013-11-22 03:35:00,25.1,20.1,30.45,WNW,293,3.4,3.4,81,0.00,,,0.00,WUHU216HW,2013-11-22 09:35:00,
2013-11-22 03:59:00,24.7,19.7,30.44,WNW,293,4.0,4.0,81,0.00,,,0.00,WUHU216HW,2013-11-22 09:59:00,
2013-11-22 04:00:00,24.7,19.7,30.44,WNW,293,4.0,4.0,81,0.00,,,0.00,WUHU216HW,2013-11-22 10:00:00,
2013-11-22 04:05:00,24.7,19.7,30.44,WNW,293,4.0,4.0,81,0.00,,,0.00,WUHU216HW,2013-11-22 10:05:00,
2013-11-22 04:29:00,24.5,19.2,30.44,WNW,293,2.0,2.0,80,0.00,,,0.00,WUHU216HW,2013-11-22 10:29:00,
2013-11-22 04:30:00,24.5,19.2,30.44,WNW,293,2.0,2.0,80,0.00,,,0.00,WUHU216HW,2013-11-22 10:30:00,
2013-11-22 04:35:00,24.5,19.2,30.44,WNW,293,2.0,2.0,80,0.00,,,0.00,WUHU216HW,2013-11-22 10:35:00,
2013-11-22 04:59:00,24.4,19.1,30.46,WNW,293,2.5,2.5,80,0.00,,,0.00,WUHU216HW,2013-11-22 10:59:00,
2013-11-22 05:00:00,24.4,19.1,30.46,WNW,293,2.5,2.5,80,0.00,,,0.00,WUHU216HW,2013-11-22 11:00:00,
2013-11-22 05:05:00,24.4,19.1,30.46,WNW,293,2.5,2.5,80,0.00,,,0.00,WUHU216HW,2013-11-22 11:05:00,
2013-11-22 05:29:00,24.2,18.9,30.48,WNW,293,5.8,5.8,80,0.00,,,0.00,WUHU216HW,2013-11-22 11:29:00,
2013-11-22 05:30:00,24.2,18.9,30.48,WNW,293,5.8,5.8,80,0.00,,,0.00,WUHU216HW,2013-11-22 11:30:00,
2013-11-22 05:35:00,24.2,18.9,30.48,WNW,293,5.8,5.8,80,0.00,,,0.00,WUHU216HW,2013-11-22 11:35:00,
2013-11-22 05:59:00,24.0,18.7,30.49,WNW,293,3.8,3.8,80,0.00,,,0.00,WUHU216HW,2013-11-22 11:59:00,
2013-11-22 06:00:00,24.0,18.7,30.49,WNW,293,3.8,3.8,80,0.00,,,0.00,WUHU216HW,2013-11-22 12:00:00,
2013-11-22 06:05:00,24.0,18.7,30.49,WNW,293,3.8,3.8,80,0.00,,,0.00,WUHU216HW,2013-11-22 12:05:00,
2013-11-22 06:29:00,23.8,18.2,30.49,WNW,293,4.3,4.3,79,0.00,,,0.00,WUHU216HW,2013-11-22 12:29:00,
2013-11-22 06:30:00,23.8,18.2,30.49,WNW,293,4.3,4.3,79,0.00,,,0.00,WUHU216HW,2013-11-22 12:30:00,
2013-11-22 06:35:00,23.8,18.2,30.49,WNW,293,4.3,4.3,79,0.00,,,0.00,WUHU216HW,2013-11-22 12:35:00,
2013-11-22 06:59:00,24.0,18.7,30.53,WNW,293,3.4,3.4,80,0.00,,,0.00,WUHU216HW,2013-11-22 12:59:00,
2013-11-22 07:00:00,24.0,18.7,30.53,WNW,293,3.4,3.4,80,0.00,,,0.00,WUHU216HW,2013-11-22 13:00:00,
2013-11-22 07:05:00,24.0,18.7,30.53,WNW,293,3.4,3.4,80,0.00,,,0.00,WUHU216HW,2013-11-22 13:05:00,
2013-11-22 07:29:00,24.0,18.7,30.54,WNW,293,3.4,3.4,80,0.00,,,0.00,WUHU216HW,2013-11-22 13:29:00,
2013-11-22 07:30:00,24.0,18.7,30.54,WNW,293,3.4,3.4,80,0.00,,,0.00,WUHU216HW,2013-11-22 13:30:00,
2013-11-22 07:35:00,24.0,18.7,30.54,WNW,293,3.4,3.4,80,0.00,,,0.00,WUHU216HW,2013-11-22 13:35:00,
2013-11-22 07:59:00,23.6,18.1,30.55,WNW,293,1.8,1.8,79,0.00,,,0.00,WUHU216HW,2013-11-22 13:59:00,
2013-11-22 08:00:00,23.6,18.1,30.55,WNW,293,1.8,1.8,79,0.00,,,0.00,WUHU216HW,2013-11-22 14:00:00,
2013-11-22 08:05:00,23.6,18.1,30.55,WNW,293,1.8,1.8,79,0.00,,,0.00,WUHU216HW,2013-11-22 14:05:00,
2013-11-22 08:29:00,23.6,18.1,30.56,WNW,293,5.1,5.1,79,0.00,,,0.00,WUHU216HW,2013-11-22 14:29:00,
2013-11-22 08:30:00,23.6,18.1,30.56,WNW,293,5.1,5.1,79,0.00,,,0.00,WUHU216HW,2013-11-22 14:30:00,
2013-11-22 08:35:00,23.6,18.1,30.56,WNW,293,5.1,5.1,79,0.00,,,0.00,WUHU216HW,2013-11-22 14:35:00,
2013-11-22 08:59:00,24.2,18.6,30.57,WNW,293,3.8,3.8,79,0.00,,,0.00,WUHU216HW,2013-11-22 14:59:00,
2013-11-22 09:00:00,24.2,18.6,30.57,WNW,293,3.8,3.8,79,0.00,,,0.00,WUHU216HW,2013-11-22 15:00:00,
2013-11-22 09:05:00,24.2,18.6,30.57,WNW,293,3.8,3.8,79,0.00,,,0.00,WUHU216HW,2013-11-22 15:05:00,
2013-11-22 09:29:00,25.3,19.7,30.54,WNW,293,1.8,1.8,79,0.00,,,0.00,WUHU216HW,2013-11-22 15:29:00,
2013-11-22 09:30:00,25.3,19.7,30.54,WNW,293,1.8,1.8,79,0.00,,,0.00,WUHU216HW,2013-11-22 15:30:00,
2013-11-22 09:35:00,25.3,19.7,30.54,WNW,293,1.8,1.8,79,0.00,,,0.00,WUHU216HW,2013-11-22 15:35:00,
2013-11-22 09:59:00,25.3,19.4,30.56,WNW,293,3.4,3.4,78,0.00,,,0.00,WUHU216HW,2013-11-22 15:59:00,
2013-11-22 10:00:00,25.3,19.4,30.56,WNW,293,3.4,3.4,78,0.00,,,0.00,WUHU216HW,2013-11-22 16:00:00,
2013-11-22 10:05:00,25.3,19.4,30.56,WNW,293,3.4,3.4,78,0.00,,,0.00,WUHU216HW,2013-11-22 16:05:00,
2013-11-22 10:30:00,26.9,21.0,30.55,WNW,293,5.8,5.8,78,0.00,,,0.00,WUHU216HW,2013-11-22 16:30:00,
2013-11-22 10:35:00,26.9,21.0,30.55,WNW,293,5.8,5.8,78,0.00,,,0.00,WUHU216HW,2013-11-22 16:35:00,
2013-11-22 10:59:00,27.4,21.2,30.57,WNW,293,2.0,2.0,77,0.00,,,0.00,WUHU216HW,2013-11-22 16:59:00,
2013-11-22 11:00:00,27.4,21.2,30.57,WNW,293,2.0,2.0,77,0.00,,,0.00,WUHU216HW,2013-11-22 17:00:00,
2013-11-22 11:05:00,27.4,21.2,30.57,WNW,293,2.0,2.0,77,0.00,,,0.00,WUHU216HW,2013-11-22 17:05:00,
2013-11-22 11:30:00,27.6,21.4,30.56,WNW,293,5.1,5.1,77,0.00,,,0.00,WUHU216HW,2013-11-22 17:30:00,
2013-11-22 11:35:00,27.6,21.4,30.56,WNW,293,5.1,5.1,77,0.00,,,0.00,WUHU216HW,2013-11-22 17:35:00,
2013-11-22 11:59:00,29.2,22.6,30.54,NNW,338,3.8,3.8,76,0.00,,,0.00,WUHU216HW,2013-11-22 17:59:00,
2013-11-22 12:00:00,29.2,22.6,30.54,NNW,338,3.8,3.8,76,0.00,,,0.00,WUHU216HW,2013-11-22 18:00:00,
2013-11-22 12:05:00,29.2,22.6,30.54,NNW,338,3.8,3.8,76,0.00,,,0.00,WUHU216HW,2013-11-22 18:05:00,
2013-11-22 12:29:00,29.6,22.7,30.55,NNW,338,6.3,6.3,75,0.00,,,0.00,WUHU216HW,2013-11-22 18:29:00,
2013-11-22 12:30:00,29.6,22.7,30.55,NNW,338,6.3,6.3,75,0.00,,,0.00,WUHU216HW,2013-11-22 18:30:00,
2013-11-22 12:35:00,29.6,22.7,30.55,NNW,338,6.3,6.3,75,0.00,,,0.00,WUHU216HW,2013-11-22 18:35:00,
2013-11-22 12:59:00,28.3,21.4,30.55,NNW,338,3.8,3.8,75,0.00,,,0.00,WUHU216HW,2013-11-22 18:59:00,
2013-11-22 13:00:00,28.3,21.4,30.55,NNW,338,3.8,3.8,75,0.00,,,0.00,WUHU216HW,2013-11-22 19:00:00,
2013-11-22 13:05:00,28.3,21.4,30.55,NNW,338,3.8,3.8,75,0.00,,,0.00,WUHU216HW,2013-11-22 19:05:00,
2013-11-22 13:29:00,26.9,20.1,30.56,NNW,338,6.9,6.9,75,0.00,,,0.00,WUHU216HW,2013-11-22 19:29:00,
2013-11-22 13:30:00,26.9,20.1,30.56,NNW,338,6.9,6.9,75,0.00,,,0.00,WUHU216HW,2013-11-22 19:30:00,
2013-11-22 13:35:00,26.9,20.1,30.56,NNW,338,6.9,6.9,75,0.00,,,0.00,WUHU216HW,2013-11-22 19:35:00,
2013-11-22 14:00:00,27.1,20.9,30.55,NNW,338,6.3,6.3,77,0.00,,,0.00,WUHU216HW,2013-11-22 20:00:00,
2013-11-22 14:05:00,27.1,20.9,30.55,NNW,338,6.3,6.3,77,0.00,,,0.00,WUHU216HW,2013-11-22 20:05:00,
2013-11-22 14:30:00,27.8,21.2,30.54,NNW,338,2.7,2.7,76,0.00,,,0.00,WUHU216HW,2013-11-22 20:30:00,
2013-11-22 14:35:00,27.8,21.2,30.54,NNW,338,2.7,2.7,76,0.00,,,0.00,WUHU216HW,2013-11-22 20:35:00,
2013-11-22 15:00:00,28.0,21.4,30.54,NNW,338,2.7,2.7,76,0.00,,,0.00,WUHU216HW,2013-11-22 21:00:00,
2013-11-22 15:05:00,28.0,21.4,30.54,NNW,338,2.7,2.7,76,0.00,,,0.00,WUHU216HW,2013-11-22 21:05:00,
2013-11-22 15:30:00,27.6,21.1,30.55,NNW,338,4.7,4.7,76,0.00,,,0.00,WUHU216HW,2013-11-22 21:30:00,
2013-11-22 15:35:00,27.6,21.1,30.55,NNW,338,4.7,4.7,76,0.00,,,0.00,WUHU216HW,2013-11-22 21:35:00,
2013-11-22 16:00:00,27.6,21.1,30.56,NNW,338,4.3,4.3,76,0.00,,,0.00,WUHU216HW,2013-11-22 22:00:00,
2013-11-22 16:05:00,27.6,21.1,30.56,NNW,338,4.3,4.3,76,0.00,,,0.00,WUHU216HW,2013-11-22 22:05:00,
2013-11-22 16:30:00,27.1,20.9,30.56,NNW,338,3.4,3.4,77,0.00,,,0.00,WUHU216HW,2013-11-22 22:30:00,
2013-11-22 16:35:00,27.1,20.9,30.56,NNW,338,3.4,3.4,77,0.00,,,0.00,WUHU216HW,2013-11-22 22:35:00,
2013-11-22 16:59:00,26.7,20.2,30.56,NNW,338,1.8,1.8,76,0.00,,,0.00,WUHU216HW,2013-11-22 22:59:00,
2013-11-22 17:00:00,26.7,20.2,30.56,NNW,338,1.8,1.8,76,0.00,,,0.00,WUHU216HW,2013-11-22 23:00:00,
2013-11-22 17:05:00,26.7,20.2,30.56,NNW,338,1.8,1.8,76,0.00,,,0.00,WUHU216HW,2013-11-22 23:05:00,
2013-11-22 17:29:00,26.5,20.3,30.56,NNW,338,0.9,0.9,77,0.00,,,0.00,WUHU216HW,2013-11-22 23:29:00,
2013-11-22 17:30:00,26.5,20.3,30.56,NNW,338,0.9,0.9,77,0.00,,,0.00,WUHU216HW,2013-11-22 23:30:00,
2013-11-22 17:35:00,26.5,20.3,30.56,NNW,338,0.9,0.9,77,0.00,,,0.00,WUHU216HW,2013-11-22 23:35:00,
2013-11-22 17:59:00,26.3,20.1,30.56,NNW,338,1.3,1.3,77,0.00,,,0.00,WUHU216HW,2013-11-22 23:59:00,
2013-11-22 18:00:00,26.3,20.1,30.56,NNW,338,1.3,1.3,77,0.00,,,0.00,WUHU216HW,2013-11-23 00:00:00,
2013-11-22 18:05:00,26.3,20.1,30.56,NNW,338,1.3,1.3,77,0.00,,,0.00,WUHU216HW,2013-11-23 00:05:00,
2013-11-22 18:29:00,26.2,20.3,30.57,NNW,338,1.6,1.6,78,0.00,,,0.00,WUHU216HW,2013-11-23 00:29:00,
2013-11-22 18:30:00,26.2,20.3,30.57,NNW,338,1.6,1.6,78,0.00,,,0.00,WUHU216HW,2013-11-23 00:30:00,
2013-11-22 18:35:00,26.2,20.3,30.57,NNW,338,1.6,1.6,78,0.00,,,0.00,WUHU216HW,2013-11-23 00:35:00,
2013-11-22 18:59:00,26.0,19.8,30.56,NNW,338,1.1,1.1,77,0.00,,,0.00,WUHU216HW,2013-11-23 00:59:00,
2013-11-22 19:00:00,26.0,19.8,30.56,NNW,338,1.1,1.1,77,0.00,,,0.00,WUHU216HW,2013-11-23 01:00:00,
2013-11-22 19:05:00,26.0,19.8,30.56,NNW,338,1.1,1.1,77,0.00,,,0.00,WUHU216HW,2013-11-23 01:05:00,
2013-11-22 19:29:00,26.2,20.0,30.56,NNW,338,0.4,0.4,77,0.00,,,0.00,WUHU216HW,2013-11-23 01:29:00,
2013-11-22 19:30:00,26.2,20.0,30.56,NNW,338,0.4,0.4,77,0.00,,,0.00,WUHU216HW,2013-11-23 01:30:00,
2013-11-22 19:35:00,26.2,20.0,30.56,NNW,338,0.4,0.4,77,0.00,,,0.00,WUHU216HW,2013-11-23 01:35:00,
2013-11-22 19:59:00,25.6,19.4,30.56,NNW,338,0.4,0.4,77,0.00,,,0.00,WUHU216HW,2013-11-23 01:59:00,
2013-11-22 20:00:00,25.6,19.4,30.56,NNW,338,0.4,0.4,77,0.00,,,0.00,WUHU216HW,2013-11-23 02:00:00,
2013-11-22 20:05:00,25.6,19.4,30.56,NNW,338,0.4,0.4,77,0.00,,,0.00,WUHU216HW,2013-11-23 02:05:00,
2013-11-22 20:29:00,25.3,19.4,30.57,NNW,338,0.9,0.9,78,0.00,,,0.00,WUHU216HW,2013-11-23 02:29:00,
2013-11-22 20:30:00,25.3,19.4,30.57,NNW,338,0.9,0.9,78,0.00,,,0.00,WUHU216HW,2013-11-23 02:30:00,
2013-11-22 20:35:00,25.3,19.4,30.57,NNW,338,0.9,0.9,78,0.00,,,0.00,WUHU216HW,2013-11-23 02:35:00,
2013-11-22 20:59:00,24.9,19.0,30.58,NNW,338,0.9,0.9,78,0.00,,,0.00,WUHU216HW,2013-11-23 02:59:00,
2013-11-22 21:00:00,24.9,19.0,30.58,NNW,338,0.9,0.9,78,0.00,,,0.00,WUHU216HW,2013-11-23 03:00:00,
2013-11-22 21:05:00,24.9,19.0,30.58,NNW,338,0.9,0.9,78,0.00,,,0.00,WUHU216HW,2013-11-23 03:05:00,
2013-11-22 21:29:00,24.7,18.5,30.58,NNW,338,1.6,1.6,77,0.00,,,0.00,WUHU216HW,2013-11-23 03:29:00,
2013-11-22 21:30:00,24.7,18.5,30.58,NNW,338,1.6,1.6,77,0.00,,,0.00,WUHU216HW,2013-11-23 03:30:00,
2013-11-22 21:35:00,24.7,18.5,30.58,NNW,338,1.6,1.6,77,0.00,,,0.00,WUHU216HW,2013-11-23 03:35:00,
2013-11-22 21:59:00,24.2,18.1,30.58,NNW,338,0.7,0.7,77,0.00,,,0.00,WUHU216HW,2013-11-23 03:59:00,
2013-11-22 22:00:00,24.2,18.1,30.58,NNW,338,0.7,0.7,77,0.00,,,0.00,WUHU216HW,2013-11-23 04:00:00,
2013-11-22 22:05:00,24.2,18.1,30.58,NNW,338,0.7,0.7,77,0.00,,,0.00,WUHU216HW,2013-11-23 04:05:00,
2013-11-22 22:29:00,23.3,16.9,30.57,NNW,338,0.4,0.4,76,0.00,,,0.00,WUHU216HW,2013-11-23 04:29:00,
2013-11-22 22:30:00,23.3,16.9,30.57,NNW,338,0.4,0.4,76,0.00,,,0.00,WUHU216HW,2013-11-23 04:30:00,
2013-11-22 22:35:00,23.3,16.9,30.57,NNW,338,0.4,0.4,76,0.00,,,0.00,WUHU216HW,2013-11-23 04:35:00,
2013-11-22 22:59:00,22.6,16.5,30.57,NNW,338,0.0,0.0,77,0.00,,,0.00,WUHU216HW,2013-11-23 04:59:00,
2013-11-22 23:00:00,22.6,16.5,30.57,NNW,338,0.0,0.0,77,0.00,,,0.00,WUHU216HW,2013-11-23 05:00:00,
2013-11-22 23:01:00,22.6,16.5,30.57,NNW,338,0.0,0.0,77,0.00,,,0.00,WUHU216HW,2013-11-23 05:01:00,
2013-11-22 23:02:00,22.6,16.5,30.57,NNW,338,0.0,0.0,77,0.00,,,0.00,WUHU216HW,2013-11-23 05:02:00,
2013-11-22 23:07:00,22.6,16.5,30.57,NNW,338,0.0,0.0,77,0.00,,,0.00,WUHU216HW,2013-11-23 05:07:00,
2013-11-22 23:29:00,22.0,15.9,30.57,NNW,338,0.4,0.4,77,0.00,,,0.00,WUHU216HW,2013-11-23 05:29:00,
2013-11-22 23:30:00,22.0,15.9,30.57,NNW,338,0.4,0.4,77,0.00,,,0.00,WUHU216HW,2013-11-23 05:30:00,
2013-11-22 23:35:00,22.0,15.9,30.57,NNW,338,0.4,0.4,77,0.00,,,0.00,WUHU216HW,2013-11-23 05:35:00,
2013-11-22 23:59:00,21.8,16.0,30.57,NNW,338,0.4,0.4,78,0.00,,,0.00,WUHU216HW,2013-11-23 05:59:00,